Time;durP1;ratioP1;P1;durP2;ratioP2;P2;SDS_P1;SDS_P2;PMS_P1;PMS_P2;Temp;Humidity;BMP_temperature;BMP_pressure;BME280_temperature;BME280_humidity;BME280_pressure;Samples;Min_cycle;Max_cycle;Signal;HPM_P1;HPM_P2
2022/03/30 00:00:56;;;;;;;44.40;34.10;;;12.60;89.30;;;;;;5037197;28;20498;-87
2022/03/30 00:03:23;;;;;;;39.38;31.08;;;12.60;89.40;;;;;;5055460;28;20059;-86
2022/03/30 00:05:48;;;;;;;46.83;33.88;;;12.70;89.50;;;;;;5055563;28;20036;-87
2022/03/30 00:08:14;;;;;;;39.75;28.70;;;12.60;89.50;;;;;;5054964;28;20041;-85
2022/03/30 00:10:41;;;;;;;40.53;27.63;;;12.60;90.00;;;;;;5054983;28;20035;-86
2022/03/30 00:13:08;;;;;;;40.65;31.40;;;12.60;89.70;;;;;;5055067;28;20041;-87
2022/03/30 00:15:34;;;;;;;41.20;26.67;;;12.60;89.60;;;;;;5037422;28;20025;-88
2022/03/30 00:18:00;;;;;;;39.08;27.75;;;12.60;89.30;;;;;;5054195;28;20121;-82
2022/03/30 00:20:26;;;;;;;40.13;27.67;;;12.60;89.60;;;;;;5036126;28;20100;-82
2022/03/30 00:22:51;;;;;;;39.55;25.73;;;12.60;89.50;;;;;;5035395;28;20401;-80
2022/03/30 00:25:17;;;;;;;35.38;24.33;;;12.70;89.50;;;;;;5052829;28;20063;-81
2022/03/30 00:27:43;;;;;;;33.90;25.85;;;12.80;89.30;;;;;;5052276;28;20036;-81
2022/03/30 00:30:14;;;;;;;38.35;22.98;;;12.80;89.90;;;;;;5053345;28;20140;-82
2022/03/30 00:32:39;;;;;;;29.92;22.05;;;12.80;89.40;;;;;;5035664;28;20090;-83
2022/03/30 00:35:06;;;;;;;35.65;25.25;;;12.90;89.30;;;;;;5035438;28;20517;-81
2022/03/30 00:37:32;;;;;;;38.22;24.23;;;12.90;89.60;;;;;;5035177;28;20045;-83
2022/03/30 00:39:58;;;;;;;33.50;22.67;;;12.80;90.10;;;;;;5052826;28;20033;-83
2022/03/30 00:42:24;;;;;;;33.13;20.23;;;12.80;90.10;;;;;;5052758;28;20186;-83
2022/03/30 00:44:51;;;;;;;39.03;21.67;;;12.80;90.20;;;;;;5052867;28;20122;-83
2022/03/30 00:47:20;;;;;;;37.90;23.02;;;12.80;90.30;;;;;;5053102;28;20049;-83
2022/03/30 00:49:46;;;;;;;30.63;21.83;;;12.90;90.30;;;;;;5035571;28;20461;-83
2022/03/30 00:52:13;;;;;;;32.20;20.88;;;12.90;90.30;;;;;;5034915;28;20052;-81
2022/03/30 00:54:41;;;;;;;33.00;21.38;;;12.90;90.30;;;;;;5034795;28;20037;-82
2022/03/30 00:57:09;;;;;;;33.30;21.63;;;12.90;90.50;;;;;;5051761;28;20067;-82
2022/03/30 00:59:36;;;;;;;34.75;21.02;;;12.90;90.50;;;;;;5034733;28;20040;-80
2022/03/30 01:02:02;;;;;;;29.05;18.00;;;12.90;90.70;;;;;;5052482;28;20489;-83
2022/03/30 01:04:28;;;;;;;26.88;17.67;;;12.80;90.90;;;;;;5034330;28;20033;-82
2022/03/30 01:06:54;;;;;;;32.70;18.02;;;12.90;91.10;;;;;;5036943;28;20064;-82
2022/03/30 01:09:20;;;;;;;31.63;20.67;;;12.90;90.80;;;;;;5056300;28;20071;-81
2022/03/30 01:11:47;;;;;;;32.60;17.05;;;12.90;90.70;;;;;;5038522;28;20037;-82
2022/03/30 01:14:13;;;;;;;31.23;17.42;;;12.80;91.00;;;;;;5039482;28;20029;-82
2022/03/30 01:16:42;;;;;;;29.30;17.15;;;12.80;90.90;;;;;;5039144;28;20033;-82
2022/03/30 01:19:10;;;;;;;26.80;17.00;;;12.80;90.90;;;;;;5057063;28;20037;-81
2022/03/30 01:21:37;;;;;;;26.42;16.92;;;12.90;90.80;;;;;;5055937;28;20435;-82
2022/03/30 01:24:04;;;;;;;25.38;16.85;;;12.90;90.60;;;;;;5056470;28;20051;-81
2022/03/30 01:26:30;;;;;;;25.60;16.83;;;12.90;90.70;;;;;;5065519;28;20043;-82
2022/03/30 01:28:56;;;;;;;25.75;16.27;;;12.90;90.70;;;;;;5057043;28;20041;-81
2022/03/30 01:34:07;;;;;;;22.48;14.25;;;12.80;90.90;;;;;;5056245;28;20503;-82
2022/03/30 01:36:35;;;;;;;24.55;13.68;;;12.90;90.90;;;;;;5055928;28;20111;-82
2022/03/30 01:39:02;;;;;;;22.17;14.38;;;12.90;90.70;;;;;;5056587;28;20041;-82
2022/03/30 05:59:34;;;;;;;23.65;11.48;;;12.20;89.90;;;;;;5093638;22;20064;-95
2022/03/30 06:11:25;;;;;;;25.40;13.63;;;12.30;88.80;;;;;;5210039;22;20057;-82
2022/03/30 06:13:50;;;;;;;23.58;12.55;;;12.20;89.40;;;;;;5049011;28;20044;-81
2022/03/30 06:16:17;;;;;;;24.75;12.32;;;12.20;89.70;;;;;;5040555;28;20021;-81
2022/03/30 06:18:45;;;;;;;22.85;12.57;;;12.20;89.60;;;;;;5045481;28;20056;-81
2022/03/30 06:21:12;;;;;;;22.15;12.85;;;12.30;89.40;;;;;;5042584;28;20037;-82
2022/03/30 06:23:38;;;;;;;21.33;12.13;;;12.30;89.10;;;;;;5053760;28;20040;-82
2022/03/30 06:26:05;;;;;;;24.73;12.98;;;12.30;89.30;;;;;;5054276;28;20091;-81
2022/03/30 06:28:31;;;;;;;22.25;11.15;;;12.40;89.30;;;;;;5050564;28;20029;-81
2022/03/30 06:31:00;;;;;;;18.25;10.20;;;12.50;89.00;;;;;;5036259;28;20052;-81
2022/03/30 06:33:25;;;;;;;24.95;13.10;;;12.60;88.60;;;;;;5029277;28;20033;-81
2022/03/30 06:35:51;;;;;;;25.80;13.02;;;12.50;87.80;;;;;;5053089;28;20083;-82
2022/03/30 06:38:17;;;;;;;26.35;12.85;;;12.60;88.10;;;;;;5053833;28;20041;-81
2022/03/30 06:40:46;;;;;;;23.65;13.13;;;12.60;87.60;;;;;;5036778;28;20067;-81
2022/03/30 06:43:15;;;;;;;23.87;13.47;;;12.60;87.30;;;;;;5036494;28;20535;-80
2022/03/30 06:45:43;;;;;;;58.60;41.55;;;12.50;87.10;;;;;;5055109;28;20033;-80
2022/03/30 06:48:11;;;;;;;48.85;38.55;;;12.40;87.80;;;;;;5035553;28;20552;-80
2022/03/30 06:50:37;;;;;;;24.60;15.70;;;12.40;88.00;;;;;;5053894;28;20127;-80
2022/03/30 06:53:05;;;;;;;23.95;14.40;;;12.50;87.40;;;;;;5053227;28;20068;-81
2022/03/30 06:55:31;;;;;;;22.00;14.35;;;12.40;87.40;;;;;;5053490;28;20369;-80
2022/03/30 06:58:19;;;;;;;29.58;14.57;;;12.40;87.50;;;;;;5053165;28;20028;-80
2022/03/30 07:00:46;;;;;;;23.27;14.20;;;12.40;87.40;;;;;;5033461;28;20033;-80
2022/03/30 07:03:12;;;;;;;29.83;14.07;;;12.40;87.60;;;;;;5034853;28;20175;-81
2022/03/30 07:05:38;;;;;;;28.73;15.93;;;12.40;87.50;;;;;;5052869;28;20665;-80
2022/03/30 07:11:08;;;;;;;26.52;13.65;;;12.40;87.40;;;;;;5051217;28;20087;-81
2022/03/30 07:13:34;;;;;;;26.08;15.70;;;12.40;87.70;;;;;;5051856;28;20053;-81
2022/03/30 07:16:00;;;;;;;21.95;14.55;;;12.30;87.40;;;;;;5051679;28;20033;-80
2022/03/30 07:18:26;;;;;;;28.33;15.20;;;12.30;87.20;;;;;;5052723;28;20029;-81
2022/03/30 07:20:52;;;;;;;28.60;16.13;;;12.30;87.30;;;;;;5053215;28;20029;-80
2022/03/30 07:23:18;;;;;;;31.45;16.20;;;12.30;87.20;;;;;;5035272;28;20587;-80
2022/03/30 07:25:45;;;;;;;24.75;14.40;;;12.40;87.20;;;;;;5034337;28;20029;-80
2022/03/30 07:28:12;;;;;;;19.05;13.52;;;12.40;87.00;;;;;;5052328;28;20056;-80
2022/03/30 07:30:45;;;;;;;23.30;13.50;;;12.40;86.90;;;;;;5052442;28;20075;-84
2022/03/30 07:33:15;;;;;;;24.70;14.13;;;12.50;87.00;;;;;;5034539;28;20040;-84
2022/03/30 07:35:46;;;;;;;24.23;14.20;;;12.60;86.40;;;;;;5035177;28;20116;-79
2022/03/30 07:38:18;;;;;;;33.03;15.02;;;12.60;86.10;;;;;;5051683;28;20404;-79
2022/03/30 07:40:45;;;;;;;22.63;14.45;;;12.50;86.00;;;;;;5052111;28;20025;-79
2022/03/30 07:43:12;;;;;;;21.02;13.60;;;12.60;86.10;;;;;;5051833;28;20046;-80
2022/03/30 07:45:39;;;;;;;24.88;14.57;;;12.60;85.80;;;;;;5051710;28;20091;-79
2022/03/30 07:48:05;;;;;;;23.38;13.93;;;12.70;85.50;;;;;;5050891;28;20098;-80
2022/03/30 07:50:31;;;;;;;25.98;16.08;;;12.70;85.70;;;;;;5052208;28;20041;-80
2022/03/30 07:52:57;;;;;;;26.75;13.45;;;12.70;84.90;;;;;;5049489;28;20504;-80
2022/03/30 07:55:24;;;;;;;21.08;12.75;;;12.70;85.30;;;;;;5034143;28;20136;-80
2022/03/30 07:57:50;;;;;;;25.88;13.43;;;12.70;86.10;;;;;;5052076;28;20029;-81
2022/03/30 08:00:17;;;;;;;31.02;15.00;;;12.80;85.10;;;;;;5028814;28;20155;-85
2022/03/30 08:02:45;;;;;;;21.13;14.70;;;12.80;84.70;;;;;;5048951;28;20542;-85
2022/03/30 08:05:12;;;;;;;25.17;14.45;;;12.90;84.50;;;;;;5033664;28;20056;-85
2022/03/30 08:07:43;;;;;;;27.38;14.13;;;12.90;84.40;;;;;;5052245;28;20119;-85
2022/03/30 08:10:10;;;;;;;25.85;12.45;;;12.90;84.50;;;;;;5035134;28;20569;-84
2022/03/30 08:12:40;;;;;;;23.65;13.90;;;12.90;85.30;;;;;;5052876;28;20323;-85
2022/03/30 08:15:06;;;;;;;26.10;13.38;;;13.00;84.70;;;;;;5035540;28;20412;-85
2022/03/30 08:17:32;;;;;;;23.73;13.55;;;13.10;84.40;;;;;;5053086;28;20112;-85
2022/03/30 08:19:59;;;;;;;24.85;13.45;;;13.20;85.70;;;;;;5052730;28;20156;-85
2022/03/30 08:22:30;;;;;;;26.58;14.10;;;13.30;85.00;;;;;;5053239;28;20029;-85
2022/03/30 08:25:00;;;;;;;23.98;13.65;;;13.30;84.30;;;;;;5052834;28;20132;-85
2022/03/30 08:27:29;;;;;;;26.33;13.77;;;13.40;83.00;;;;;;5035676;28;20148;-84
2022/03/30 08:29:55;;;;;;;30.23;14.57;;;13.40;83.90;;;;;;5053574;28;20021;-85
2022/03/30 08:32:22;;;;;;;27.88;14.00;;;13.40;83.20;;;;;;5052946;28;20064;-85
2022/03/30 08:34:50;;;;;;;24.25;14.23;;;13.30;83.60;;;;;;5053029;28;20048;-86
2022/03/30 08:37:16;;;;;;;23.95;13.45;;;13.30;82.80;;;;;;5053298;28;21035;-86
2022/03/30 08:39:42;;;;;;;26.50;13.48;;;13.30;82.90;;;;;;5053279;28;20447;-85
2022/03/30 08:42:10;;;;;;;24.75;14.45;;;13.40;82.70;;;;;;5052919;28;20068;-85
2022/03/30 08:44:36;;;;;;;22.27;13.90;;;13.40;82.20;;;;;;5053434;28;20071;-85
2022/03/30 08:47:06;;;;;;;22.60;13.38;;;13.50;82.60;;;;;;5053331;28;20067;-85
2022/03/30 08:49:37;;;;;;;22.65;13.23;;;13.60;83.60;;;;;;5053349;28;20021;-84
2022/03/30 08:52:04;;;;;;;22.48;13.43;;;13.60;82.70;;;;;;5035061;28;20043;-85
2022/03/30 08:54:30;;;;;;;29.63;13.50;;;13.70;81.80;;;;;;5053168;28;20416;-85
2022/03/30 08:56:56;;;;;;;24.88;15.05;;;13.80;81.60;;;;;;5053126;28;20496;-86
2022/03/30 08:59:24;;;;;;;21.42;11.75;;;13.80;81.70;;;;;;5035620;28;20035;-86
2022/03/30 09:01:52;;;;;;;27.50;14.93;;;13.80;81.40;;;;;;5034821;28;20037;-85
2022/03/30 09:04:19;;;;;;;21.15;13.27;;;13.70;81.00;;;;;;5052878;28;20040;-85
2022/03/30 09:06:52;;;;;;;22.33;12.65;;;13.80;81.10;;;;;;5053254;28;20461;-85
2022/03/30 09:09:34;;;;;;;26.20;14.48;;;13.80;81.00;;;;;;5052893;28;20037;-85
2022/03/30 09:12:06;;;;;;;19.70;11.25;;;13.90;81.00;;;;;;5051997;28;20394;-85
2022/03/30 09:14:34;;;;;;;16.85;11.15;;;13.90;81.10;;;;;;5052438;28;20051;-85
2022/03/30 09:17:05;;;;;;;25.88;13.05;;;14.00;80.80;;;;;;5033999;28;20047;-85
2022/03/30 09:19:38;;;;;;;21.02;12.60;;;14.20;81.80;;;;;;5026240;28;20073;-85
2022/03/30 09:22:06;;;;;;;17.02;11.00;;;14.20;80.00;;;;;;5031371;28;20404;-85
2022/03/30 09:24:35;;;;;;;22.73;11.93;;;14.20;79.40;;;;;;5043046;28;20103;-86
2022/03/30 09:27:02;;;;;;;21.17;11.90;;;14.30;79.30;;;;;;5027999;28;20076;-82
2022/03/30 09:29:31;;;;;;;20.75;11.02;;;14.30;79.40;;;;;;5051121;28;20040;-82
2022/03/30 09:32:02;;;;;;;22.70;11.75;;;14.30;79.00;;;;;;5047475;28;20132;-81
2022/03/30 09:34:33;;;;;;;17.35;11.00;;;14.30;79.20;;;;;;5035234;28;20074;-82
2022/03/30 09:37:00;;;;;;;19.58;10.65;;;14.30;79.60;;;;;;5055286;28;20361;-81
2022/03/30 09:39:32;;;;;;;18.17;10.40;;;14.40;79.40;;;;;;5052866;28;20033;-81
2022/03/30 09:42:00;;;;;;;17.67;9.75;;;14.40;81.10;;;;;;5055809;28;20041;-85
2022/03/30 09:44:30;;;;;;;16.95;9.95;;;14.40;79.10;;;;;;5056025;28;20044;-85
2022/03/30 09:47:05;;;;;;;15.27;10.32;;;14.50;79.60;;;;;;5037495;28;20040;-85
2022/03/30 09:49:42;;;;;;;19.42;9.88;;;14.50;79.20;;;;;;5036106;28;20071;-82
2022/03/30 09:52:15;;;;;;;20.98;10.13;;;14.60;78.60;;;;;;5036566;28;20060;-82
2022/03/30 09:54:44;;;;;;;16.58;9.48;;;14.60;80.00;;;;;;5035083;28;20039;-82
2022/03/30 09:57:12;;;;;;;22.30;10.23;;;14.60;80.20;;;;;;5050862;28;20037;-82
2022/03/30 10:00:14;;;;;;;18.80;10.10;;;14.70;80.30;;;;;;5037373;28;20087;-83
2022/03/30 10:02:46;;;;;;;17.92;10.15;;;14.80;79.50;;;;;;5029589;28;20040;-81
2022/03/30 10:05:18;;;;;;;17.17;9.48;;;14.70;77.60;;;;;;5054770;28;20423;-83
2022/03/30 10:07:45;;;;;;;16.75;9.38;;;14.80;77.60;;;;;;5055459;28;20025;-82
2022/03/30 10:10:13;;;;;;;19.42;10.15;;;14.80;79.00;;;;;;5037502;28;20048;-82
2022/03/30 10:12:39;;;;;;;17.63;9.55;;;14.90;78.90;;;;;;5051271;28;20053;-84
2022/03/30 10:15:07;;;;;;;14.05;8.80;;;14.80;78.40;;;;;;5055084;28;20041;-83
2022/03/30 10:17:34;;;;;;;17.73;9.30;;;14.90;77.70;;;;;;5036235;28;20060;-82
2022/03/30 10:20:01;;;;;;;16.35;9.98;;;14.90;77.60;;;;;;5055841;28;20061;-84
2022/03/30 10:22:52;;;;;;;17.92;8.82;;;14.90;77.70;;;;;;5055206;28;20032;-84
2022/03/30 10:25:56;;;;;;;20.67;9.80;;;14.90;77.90;;;;;;5046690;28;20065;-84
2022/03/30 10:28:30;;;;;;;19.17;10.20;;;14.80;77.50;;;;;;5050595;28;20056;-84
2022/03/30 10:30:57;;;;;;;14.90;8.65;;;14.80;78.00;;;;;;5050778;28;20527;-83
2022/03/30 10:33:32;;;;;;;21.25;9.20;;;14.80;78.20;;;;;;5035384;28;20040;-81
2022/03/30 10:36:18;;;;;;;17.17;8.93;;;14.80;78.30;;;;;;5052229;28;20040;-82
2022/03/30 10:39:06;;;;;;;17.23;8.77;;;14.80;78.20;;;;;;5036088;28;20032;-81
2022/03/30 10:41:56;;;;;;;19.10;8.57;;;14.90;78.20;;;;;;5026867;28;20052;-80
2022/03/30 10:44:50;;;;;;;14.70;8.60;;;14.90;79.40;;;;;;5055250;28;20387;-85
2022/03/30 10:47:21;;;;;;;20.13;9.23;;;14.90;78.80;;;;;;5035776;28;20033;-85
2022/03/30 10:49:55;;;;;;;21.10;9.25;;;15.00;79.80;;;;;;5019043;28;20036;-85
2022/03/30 10:52:50;;;;;;;26.20;10.65;;;14.90;79.20;;;;;;5036275;28;20040;-85
2022/03/30 10:55:19;;;;;;;18.50;9.90;;;14.90;80.10;;;;;;5036787;28;20033;-85
2022/03/30 10:57:53;;;;;;;18.48;10.90;;;15.00;81.70;;;;;;5053027;28;20033;-85
2022/03/30 11:00:45;;;;;;;20.63;10.93;;;15.00;82.90;;;;;;5049776;28;20069;-84
2022/03/30 11:03:11;;;;;;;25.15;11.52;;;15.00;82.30;;;;;;5029052;28;20091;-88
2022/03/30 11:05:37;;;;;;;27.60;12.38;;;15.00;82.90;;;;;;5033782;28;20507;-88
2022/03/30 11:08:05;;;;;;;24.23;12.82;;;15.00;84.10;;;;;;5050237;28;20470;-85
2022/03/30 11:10:45;;;;;;;23.40;13.77;;;15.00;84.70;;;;;;5054141;28;20076;-83
2022/03/30 11:13:11;;;;;;;22.42;13.98;;;15.00;83.90;;;;;;5046977;28;20044;-82
2022/03/30 11:16:07;;;;;;;27.30;14.93;;;15.00;85.70;;;;;;5053668;28;20032;-82
2022/03/30 11:18:33;;;;;;;21.90;13.68;;;15.00;83.90;;;;;;5053465;28;20040;-82
2022/03/30 11:21:08;;;;;;;25.20;14.45;;;15.00;83.90;;;;;;5052265;28;20072;-83
2022/03/30 11:23:35;;;;;;;27.40;13.45;;;15.00;85.00;;;;;;5038075;28;20033;-83
2022/03/30 11:26:01;;;;;;;25.92;15.95;;;15.00;84.00;;;;;;5044419;28;20753;-82
2022/03/30 11:28:37;;;;;;;28.27;15.93;;;15.10;84.00;;;;;;5036764;28;20029;-82
2022/03/30 11:31:17;;;;;;;22.48;12.88;;;15.00;84.00;;;;;;5042591;28;20437;-80
2022/03/30 11:33:43;;;;;;;23.83;14.40;;;15.10;84.50;;;;;;5028774;28;20366;-82
2022/03/30 11:36:09;;;;;;;21.05;12.98;;;15.10;85.60;;;;;;5046369;28;20040;-82
2022/03/30 11:38:40;;;;;;;28.77;16.15;;;15.20;85.40;;;;;;5051096;28;20029;-82
2022/03/30 11:41:08;;;;;;;26.45;16.73;;;15.20;84.10;;;;;;5053338;28;20029;-82
2022/03/30 11:46:29;;;;;;;26.92;16.10;;;15.20;84.50;;;;;;5048295;28;20075;-81
2022/03/30 11:49:05;;;;;;;29.63;14.88;;;15.10;84.60;;;;;;5032159;28;20033;-80
2022/03/30 11:51:32;;;;;;;24.52;15.93;;;15.10;84.50;;;;;;5047749;28;20045;-81
2022/03/30 11:54:19;;;;;;;34.95;17.40;;;15.10;85.40;;;;;;5051323;28;20029;-81
2022/03/30 11:56:45;;;;;;;28.23;16.30;;;15.10;85.10;;;;;;5049057;28;20071;-81
2022/03/30 11:59:11;;;;;;;27.00;16.08;;;15.10;86.00;;;;;;5050941;28;20044;-81
2022/03/30 12:01:38;;;;;;;26.25;16.55;;;15.10;85.60;;;;;;5049085;28;20043;-81
2022/03/30 12:04:04;;;;;;;28.90;15.48;;;15.10;85.50;;;;;;5029735;28;20553;-80
2022/03/30 12:06:30;;;;;;;28.50;14.90;;;15.10;86.00;;;;;;5041973;28;20035;-81
2022/03/30 12:08:58;;;;;;;26.38;16.52;;;15.20;86.20;;;;;;5054097;28;20029;-81
2022/03/30 12:11:25;;;;;;;28.02;18.27;;;15.30;86.30;;;;;;5031575;28;20041;-81
2022/03/30 12:13:56;;;;;;;25.95;15.77;;;15.40;84.70;;;;;;5031975;28;20437;-81
2022/03/30 12:16:23;;;;;;;30.70;15.70;;;15.40;84.70;;;;;;5036090;28;20108;-85
2022/03/30 12:18:51;;;;;;;30.42;17.00;;;15.50;84.40;;;;;;5036851;28;20098;-84
2022/03/30 12:21:21;;;;;;;32.50;17.23;;;15.50;84.50;;;;;;5036354;28;20041;-85
2022/03/30 12:23:58;;;;;;;31.02;17.65;;;15.60;83.80;;;;;;5053905;28;20032;-85
2022/03/30 12:26:25;;;;;;;26.27;16.48;;;15.50;83.50;;;;;;5029437;28;20048;-83
2022/03/30 12:29:00;;;;;;;35.50;19.10;;;15.50;84.20;;;;;;5051810;28;20040;-85
2022/03/30 12:31:26;;;;;;;29.05;18.85;;;15.50;84.20;;;;;;5048964;28;20043;-85
2022/03/30 12:33:52;;;;;;;34.47;18.48;;;15.50;83.60;;;;;;5017801;28;20083;-84
2022/03/30 12:36:19;;;;;;;31.08;18.42;;;15.50;84.10;;;;;;5040737;28;20123;-84
2022/03/30 12:38:49;;;;;;;24.23;16.60;;;15.50;84.20;;;;;;5032667;28;20029;-84
2022/03/30 12:41:28;;;;;;;25.90;17.15;;;15.50;85.10;;;;;;5033401;28;20041;-82
2022/03/30 12:44:01;;;;;;;25.50;15.95;;;15.40;85.80;;;;;;5045921;28;20132;-81
2022/03/30 12:46:32;;;;;;;24.27;16.10;;;15.40;85.10;;;;;;5051500;28;20048;-82
2022/03/30 12:49:08;;;;;;;29.98;16.60;;;15.50;86.00;;;;;;5051196;28;20029;-80
2022/03/30 12:51:35;;;;;;;27.20;17.38;;;15.40;85.80;;;;;;5035361;28;20508;-84
2022/03/30 12:54:04;;;;;;;25.13;16.40;;;15.40;86.40;;;;;;5053296;28;20119;-82
2022/03/30 12:56:31;;;;;;;32.28;17.67;;;15.30;84.50;;;;;;5052554;28;20116;-83
2022/03/30 12:59:04;;;;;;;26.70;16.98;;;15.30;84.20;;;;;;5052857;28;20037;-83
2022/03/30 13:01:39;;;;;;;23.52;16.17;;;15.20;84.70;;;;;;5035073;28;20041;-82
2022/03/30 13:04:47;;;;;;;28.95;16.63;;;15.20;85.20;;;;;;5052627;28;20396;-82
2022/03/30 13:07:16;;;;;;;26.02;16.58;;;15.20;85.70;;;;;;5006688;28;20060;-83
2022/03/30 13:10:01;;;;;;;29.83;17.77;;;15.30;85.30;;;;;;5052903;28;20032;-81
2022/03/30 13:12:38;;;;;;;35.58;19.23;;;15.20;85.20;;;;;;5046435;28;20038;-81
2022/03/30 13:15:06;;;;;;;35.85;19.67;;;15.20;85.50;;;;;;5051064;28;20090;-84
2022/03/30 13:17:32;;;;;;;29.00;16.10;;;15.10;85.30;;;;;;5052218;28;20021;-85
2022/03/30 13:19:59;;;;;;;32.22;18.42;;;15.10;85.60;;;;;;5049290;28;20037;-82
2022/03/30 13:22:27;;;;;;;25.60;16.42;;;15.10;86.30;;;;;;5053678;28;20044;-87
2022/03/30 13:24:54;;;;;;;37.17;19.98;;;15.20;86.40;;;;;;5052407;28;20037;-84
2022/03/30 13:27:21;;;;;;;27.08;18.02;;;15.20;87.30;;;;;;5055183;28;20388;-83
2022/03/30 13:29:47;;;;;;;33.38;19.33;;;15.20;86.20;;;;;;5032666;28;20072;-84
2022/03/30 13:32:14;;;;;;;28.55;16.50;;;15.20;85.70;;;;;;5045958;28;20139;-80
2022/03/30 13:34:39;;;;;;;26.05;16.00;;;15.10;86.80;;;;;;5026312;28;20065;-84
2022/03/30 13:37:05;;;;;;;29.85;17.25;;;15.20;86.70;;;;;;5044670;28;20034;-84
2022/03/30 13:39:31;;;;;;;30.25;17.42;;;15.20;86.00;;;;;;5030500;28;20037;-85
2022/03/30 13:41:57;;;;;;;34.85;18.20;;;15.30;86.90;;;;;;5050573;28;20106;-84
2022/03/30 13:44:23;;;;;;;27.17;15.57;;;15.30;86.40;;;;;;5041703;28;20486;-84
2022/03/30 13:46:50;;;;;;;28.13;16.08;;;15.40;86.30;;;;;;5047697;28;20047;-84
2022/03/30 13:49:16;;;;;;;31.00;15.77;;;15.40;86.10;;;;;;5044188;28;20080;-85
2022/03/30 13:51:44;;;;;;;31.23;16.30;;;15.40;84.90;;;;;;5045597;28;20049;-85
2022/03/30 13:54:10;;;;;;;29.60;14.77;;;15.40;84.50;;;;;;5020983;28;20487;-86
2022/03/30 13:56:36;;;;;;;26.95;13.93;;;15.50;83.50;;;;;;5016634;28;20034;-85
2022/03/30 13:59:25;;;;;;;21.63;13.95;;;15.50;83.90;;;;;;5036425;28;20098;-79
2022/03/30 14:01:52;;;;;;;28.20;15.63;;;15.60;83.80;;;;;;5034106;28;20029;-85
2022/03/30 14:04:18;;;;;;;27.67;12.98;;;15.60;82.80;;;;;;5054095;28;20037;-85
2022/03/30 14:06:44;;;;;;;29.27;13.65;;;15.60;80.90;;;;;;5053690;28;20033;-86
2022/03/30 14:09:13;;;;;;;28.40;13.57;;;15.60;80.40;;;;;;5053613;28;20048;-85
2022/03/30 14:11:39;;;;;;;29.55;13.93;;;15.50;81.30;;;;;;5035978;28;20155;-85
2022/03/30 14:14:05;;;;;;;27.23;14.57;;;15.50;82.00;;;;;;5053027;28;20123;-86
2022/03/30 14:16:31;;;;;;;28.05;14.02;;;15.40;81.00;;;;;;5039457;28;20396;-86
2022/03/30 14:18:56;;;;;;;33.90;16.42;;;15.40;81.30;;;;;;5056468;28;20108;-86
2022/03/30 14:21:22;;;;;;;31.60;16.40;;;15.40;82.20;;;;;;5057815;28;20061;-85
2022/03/30 14:23:48;;;;;;;35.15;15.52;;;15.30;83.50;;;;;;5048148;28;20033;-85
2022/03/30 14:26:13;;;;;;;29.73;15.27;;;15.30;82.80;;;;;;5036858;28;20038;-84
2022/03/30 14:28:40;;;;;;;26.23;15.05;;;15.30;81.90;;;;;;5042804;28;20084;-84
2022/03/30 14:31:06;;;;;;;28.42;14.15;;;15.30;81.90;;;;;;5057099;28;20024;-84
2022/03/30 14:33:32;;;;;;;26.13;13.60;;;15.30;82.30;;;;;;5051595;28;20105;-85
2022/03/30 14:35:59;;;;;;;32.15;10.68;;;15.30;81.60;;;;;;5056399;28;20047;-83
2022/03/30 14:38:25;;;;;;;25.05;11.32;;;15.30;81.10;;;;;;5056706;28;20029;-84
2022/03/30 14:40:51;;;;;;;29.98;11.70;;;15.30;81.80;;;;;;5056911;28;20116;-85
2022/03/30 14:43:20;;;;;;;27.90;12.30;;;15.30;81.30;;;;;;5052041;28;20052;-85
2022/03/30 14:45:49;;;;;;;24.73;10.75;;;15.30;82.00;;;;;;5047055;28;20056;-86
2022/03/30 14:48:15;;;;;;;29.27;9.90;;;15.30;81.00;;;;;;5027603;28;20047;-86
2022/03/30 14:50:41;;;;;;;22.50;8.00;;;15.40;79.70;;;;;;5044257;28;20041;-86
2022/03/30 14:53:07;;;;;;;31.55;8.93;;;15.30;79.40;;;;;;5056487;28;20032;-84
2022/03/30 14:55:34;;;;;;;28.65;7.72;;;15.30;77.80;;;;;;5028476;28;20049;-84
2022/03/30 14:57:59;;;;;;;29.02;7.53;;;15.20;75.80;;;;;;5051234;28;20045;-84
2022/03/30 15:00:26;;;;;;;24.70;7.20;;;15.20;77.00;;;;;;5048355;28;20108;-85
2022/03/30 15:02:53;;;;;;;26.60;7.70;;;15.30;77.90;;;;;;5053553;28;20040;-85
2022/03/30 15:05:20;;;;;;;22.95;7.25;;;15.30;76.40;;;;;;5034806;28;20047;-84
2022/03/30 15:07:45;;;;;;;28.65;8.43;;;15.30;76.90;;;;;;5052662;28;20033;-85
2022/03/30 15:10:12;;;;;;;26.33;7.53;;;15.20;75.90;;;;;;5034469;28;20531;-85
2022/03/30 15:12:40;;;;;;;28.70;7.30;;;15.20;76.90;;;;;;5054947;28;20048;-85
2022/03/30 15:15:08;;;;;;;24.15;7.30;;;15.20;77.10;;;;;;5035965;28;20420;-79
2022/03/30 15:17:35;;;;;;;26.08;7.88;;;15.20;77.60;;;;;;5053415;28;20033;-79
2022/03/30 15:20:06;;;;;;;21.25;8.00;;;15.30;76.90;;;;;;5053331;28;20385;-85
2022/03/30 15:22:33;;;;;;;23.88;7.13;;;15.20;76.90;;;;;;5054810;28;20109;-85
2022/03/30 15:25:00;;;;;;;21.92;7.78;;;15.20;76.40;;;;;;5056044;28;20060;-85
2022/03/30 15:27:27;;;;;;;23.52;7.55;;;15.10;77.00;;;;;;5056569;28;20043;-85
2022/03/30 15:29:53;;;;;;;19.50;8.15;;;15.10;77.50;;;;;;5052230;28;20041;-85
2022/03/30 15:32:18;;;;;;;20.75;7.90;;;15.10;76.90;;;;;;5056620;28;20029;-84
2022/03/30 15:34:46;;;;;;;25.20;8.85;;;15.10;77.20;;;;;;5056572;28;20029;-85
2022/03/30 15:37:12;;;;;;;24.90;7.57;;;15.10;76.80;;;;;;5056974;28;20029;-85
2022/03/30 15:39:38;;;;;;;20.50;8.38;;;15.10;77.50;;;;;;5056664;28;20033;-85
2022/03/30 15:42:04;;;;;;;27.15;8.70;;;15.10;77.60;;;;;;5056299;28;20036;-85
2022/03/30 15:44:30;;;;;;;24.20;8.15;;;15.10;77.10;;;;;;5038422;28;20064;-85
2022/03/30 15:46:56;;;;;;;23.45;8.55;;;15.10;77.00;;;;;;5056517;28;20067;-85
2022/03/30 15:49:21;;;;;;;22.88;7.53;;;15.10;76.80;;;;;;5037925;28;20043;-84
2022/03/30 15:51:47;;;;;;;25.50;8.88;;;15.10;77.00;;;;;;5053696;28;20079;-85
2022/03/30 15:54:13;;;;;;;21.58;7.95;;;15.10;76.20;;;;;;5055790;28;20029;-85
2022/03/30 15:56:40;;;;;;;22.00;8.13;;;15.10;76.80;;;;;;5055991;28;20103;-85
2022/03/30 15:59:06;;;;;;;23.42;7.82;;;15.10;77.00;;;;;;5035588;28;20420;-85
2022/03/30 16:01:32;;;;;;;22.55;7.70;;;15.00;77.00;;;;;;5055777;28;20428;-85
2022/03/30 16:03:58;;;;;;;25.77;8.45;;;15.10;77.00;;;;;;5056040;28;20029;-85
2022/03/30 16:06:25;;;;;;;24.55;7.57;;;15.00;76.50;;;;;;5023970;28;20103;-85
2022/03/30 16:08:58;;;;;;;25.00;8.60;;;15.10;76.90;;;;;;5037516;28;20132;-85
2022/03/30 16:14:11;;;;;;;19.55;8.25;;;15.10;77.50;;;;;;5059777;28;20071;-85
2022/03/30 16:16:39;;;;;;;27.02;8.02;;;15.10;77.20;;;;;;5045445;28;20057;-84
2022/03/30 16:19:05;;;;;;;28.83;8.43;;;15.10;77.30;;;;;;5067271;28;20025;-85
2022/03/30 16:21:31;;;;;;;21.35;7.22;;;15.10;77.10;;;;;;5065585;28;20052;-85
2022/03/30 16:23:57;;;;;;;21.08;7.90;;;15.10;76.30;;;;;;5062962;28;20037;-85
2022/03/30 16:26:24;;;;;;;18.70;6.72;;;15.10;77.20;;;;;;5064053;28;20029;-85
2022/03/30 16:28:50;;;;;;;21.17;8.00;;;15.10;77.90;;;;;;5059737;28;20044;-85
2022/03/30 16:31:15;;;;;;;17.98;7.18;;;15.00;78.00;;;;;;5052441;28;20049;-85
2022/03/30 16:33:41;;;;;;;18.50;7.70;;;15.00;77.70;;;;;;5070099;28;20044;-84
2022/03/30 16:36:08;;;;;;;23.27;7.82;;;15.00;77.50;;;;;;5072606;28;20056;-84
2022/03/30 16:38:36;;;;;;;23.27;7.13;;;14.90;77.50;;;;;;5054451;28;20097;-85
2022/03/30 16:41:04;;;;;;;21.92;6.70;;;14.90;77.70;;;;;;5072428;28;20044;-85
2022/03/30 16:43:30;;;;;;;23.92;7.00;;;14.90;77.20;;;;;;5071407;28;20367;-85
2022/03/30 16:45:59;;;;;;;21.83;7.53;;;14.80;76.70;;;;;;5072268;28;20040;-85
2022/03/30 16:48:27;;;;;;;17.92;6.82;;;14.80;77.30;;;;;;5044830;28;20075;-85
2022/03/30 16:50:54;;;;;;;25.65;11.75;;;14.80;76.30;;;;;;5054824;28;20090;-84
2022/03/30 16:53:24;;;;;;;24.23;11.07;;;14.90;77.00;;;;;;5049008;28;20052;-84
2022/03/30 16:55:50;;;;;;;25.33;7.65;;;14.90;76.70;;;;;;5051523;28;20369;-85
2022/03/30 16:58:22;;;;;;;20.65;6.80;;;14.80;75.60;;;;;;5050858;28;20045;-84
2022/03/30 17:00:47;;;;;;;18.77;6.53;;;14.80;75.90;;;;;;5035988;28;20473;-85
2022/03/30 17:03:13;;;;;;;18.52;7.15;;;14.80;76.30;;;;;;5053728;28;20059;-84
2022/03/30 17:05:39;;;;;;;18.98;6.32;;;14.70;76.20;;;;;;5053593;28;20036;-84
2022/03/30 17:10:49;;;;;;;21.35;6.88;;;14.70;77.30;;;;;;5051760;28;20082;-82
2022/03/30 17:13:14;;;;;;;21.25;6.40;;;14.70;76.80;;;;;;5051526;28;20100;-85
2022/03/30 17:15:40;;;;;;;20.63;6.78;;;14.80;77.30;;;;;;5052962;28;20137;-84
2022/03/30 17:18:06;;;;;;;18.67;6.60;;;14.70;77.60;;;;;;5053127;28;20042;-84
2022/03/30 17:20:31;;;;;;;17.35;6.43;;;14.70;76.80;;;;;;5053832;28;20132;-85